sensor_id;sensor_type;location;lat;lon;timestamp;P1;durP1;ratioP1;P2;durP2;ratioP2
59571;SDS011;70118;45.638;11.714;2023-08-24T00:00:20;13.13;;;9.32;;
59571;SDS011;70118;45.638;11.714;2023-08-24T00:02:46;12.80;;;9.65;;
59571;SDS011;70118;45.638;11.714;2023-08-24T00:05:12;10.65;;;9.02;;
59571;SDS011;70118;45.638;11.714;2023-08-24T00:07:38;12.30;;;9.37;;
59571;SDS011;70118;45.638;11.714;2023-08-24T00:10:04;12.43;;;9.45;;
59571;SDS011;70118;45.638;11.714;2023-08-24T00:12:32;11.73;;;9.30;;
59571;SDS011;70118;45.638;11.714;2023-08-24T00:15:00;12.10;;;9.70;;
59571;SDS011;70118;45.638;11.714;2023-08-24T00:17:27;11.90;;;9.55;;
59571;SDS011;70118;45.638;11.714;2023-08-24T00:19:54;11.67;;;9.23;;
59571;SDS011;70118;45.638;11.714;2023-08-24T00:22:20;12.85;;;9.13;;
59571;SDS011;70118;45.638;11.714;2023-08-24T00:24:46;13.98;;;9.55;;
59571;SDS011;70118;45.638;11.714;2023-08-24T00:27:12;10.80;;;8.97;;
59571;SDS011;70118;45.638;11.714;2023-08-24T00:29:38;11.13;;;9.27;;
59571;SDS011;70118;45.638;11.714;2023-08-24T00:32:04;11.63;;;9.15;;
59571;SDS011;70118;45.638;11.714;2023-08-24T00:34:30;11.90;;;8.93;;
59571;SDS011;70118;45.638;11.714;2023-08-24T00:36:56;11.02;;;8.75;;
59571;SDS011;70118;45.638;11.714;2023-08-24T00:39:22;11.75;;;9.40;;
59571;SDS011;70118;45.638;11.714;2023-08-24T00:41:48;11.73;;;9.47;;
59571;SDS011;70118;45.638;11.714;2023-08-24T00:44:14;12.70;;;9.48;;
59571;SDS011;70118;45.638;11.714;2023-08-24T00:46:40;11.25;;;9.25;;
59571;SDS011;70118;45.638;11.714;2023-08-24T00:49:06;11.18;;;8.93;;
59571;SDS011;70118;45.638;11.714;2023-08-24T00:51:32;10.70;;;9.00;;
59571;SDS011;70118;45.638;11.714;2023-08-24T00:53:59;11.15;;;9.25;;
59571;SDS011;70118;45.638;11.714;2023-08-24T00:56:25;12.15;;;9.32;;
59571;SDS011;70118;45.638;11.714;2023-08-24T00:58:51;12.32;;;9.25;;
59571;SDS011;70118;45.638;11.714;2023-08-24T01:01:20;10.80;;;8.82;;
59571;SDS011;70118;45.638;11.714;2023-08-24T01:03:46;13.80;;;9.33;;
59571;SDS011;70118;45.638;11.714;2023-08-24T01:06:12;10.82;;;9.18;;
59571;SDS011;70118;45.638;11.714;2023-08-24T01:08:38;13.00;;;9.35;;
59571;SDS011;70118;45.638;11.714;2023-08-24T01:11:17;12.50;;;8.85;;
59571;SDS011;70118;45.638;11.714;2023-08-24T01:14:08;11.37;;;9.07;;
59571;SDS011;70118;45.638;11.714;2023-08-24T01:16:34;11.70;;;9.15;;
59571;SDS011;70118;45.638;11.714;2023-08-24T01:19:06;11.88;;;9.65;;
59571;SDS011;70118;45.638;11.714;2023-08-24T01:21:35;12.40;;;10.25;;
59571;SDS011;70118;45.638;11.714;2023-08-24T01:24:03;11.27;;;9.63;;
59571;SDS011;70118;45.638;11.714;2023-08-24T01:26:35;12.13;;;9.80;;
59571;SDS011;70118;45.638;11.714;2023-08-24T01:29:02;12.02;;;10.23;;
59571;SDS011;70118;45.638;11.714;2023-08-24T01:31:38;11.93;;;9.93;;
59571;SDS011;70118;45.638;11.714;2023-08-24T01:34:04;11.20;;;9.10;;
59571;SDS011;70118;45.638;11.714;2023-08-24T01:36:30;11.77;;;9.33;;
59571;SDS011;70118;45.638;11.714;2023-08-24T01:39:07;12.70;;;10.15;;
59571;SDS011;70118;45.638;11.714;2023-08-24T01:41:39;13.27;;;10.02;;
59571;SDS011;70118;45.638;11.714;2023-08-24T01:44:12;11.80;;;9.63;;
59571;SDS011;70118;45.638;11.714;2023-08-24T01:46:39;12.37;;;9.60;;
59571;SDS011;70118;45.638;11.714;2023-08-24T01:49:08;11.20;;;9.35;;
59571;SDS011;70118;45.638;11.714;2023-08-24T01:51:37;11.10;;;9.63;;
59571;SDS011;70118;45.638;11.714;2023-08-24T01:54:04;10.80;;;8.85;;
59571;SDS011;70118;45.638;11.714;2023-08-24T01:56:30;11.82;;;8.63;;
59571;SDS011;70118;45.638;11.714;2023-08-24T01:58:56;11.63;;;9.13;;
59571;SDS011;70118;45.638;11.714;2023-08-24T02:01:22;12.23;;;9.55;;
59571;SDS011;70118;45.638;11.714;2023-08-24T02:03:48;12.05;;;9.52;;
59571;SDS011;70118;45.638;11.714;2023-08-24T02:06:13;12.37;;;9.07;;
59571;SDS011;70118;45.638;11.714;2023-08-24T02:08:39;11.25;;;9.40;;
59571;SDS011;70118;45.638;11.714;2023-08-24T02:11:05;10.90;;;9.27;;
59571;SDS011;70118;45.638;11.714;2023-08-24T02:13:32;10.65;;;8.65;;
59571;SDS011;70118;45.638;11.714;2023-08-24T02:16:04;10.10;;;8.55;;
59571;SDS011;70118;45.638;11.714;2023-08-24T02:18:32;10.68;;;8.45;;
59571;SDS011;70118;45.638;11.714;2023-08-24T02:20:58;12.67;;;9.40;;
59571;SDS011;70118;45.638;11.714;2023-08-24T02:23:24;12.97;;;9.30;;
59571;SDS011;70118;45.638;11.714;2023-08-24T02:25:50;12.05;;;9.68;;
59571;SDS011;70118;45.638;11.714;2023-08-24T02:28:16;11.40;;;9.13;;
59571;SDS011;70118;45.638;11.714;2023-08-24T02:30:42;12.33;;;9.07;;
59571;SDS011;70118;45.638;11.714;2023-08-24T02:33:08;10.95;;;8.48;;
59571;SDS011;70118;45.638;11.714;2023-08-24T02:35:33;10.77;;;8.80;;
59571;SDS011;70118;45.638;11.714;2023-08-24T02:37:59;11.48;;;8.98;;
59571;SDS011;70118;45.638;11.714;2023-08-24T02:40:25;13.35;;;9.48;;
59571;SDS011;70118;45.638;11.714;2023-08-24T02:42:51;12.00;;;9.97;;
59571;SDS011;70118;45.638;11.714;2023-08-24T02:45:17;13.07;;;9.40;;
59571;SDS011;70118;45.638;11.714;2023-08-24T02:47:43;12.90;;;9.35;;
59571;SDS011;70118;45.638;11.714;2023-08-24T02:50:09;13.10;;;9.33;;
59571;SDS011;70118;45.638;11.714;2023-08-24T02:52:35;12.18;;;10.00;;
59571;SDS011;70118;45.638;11.714;2023-08-24T02:55:01;11.82;;;9.30;;
59571;SDS011;70118;45.638;11.714;2023-08-24T02:57:27;12.20;;;8.60;;
59571;SDS011;70118;45.638;11.714;2023-08-24T02:59:53;11.57;;;9.23;;
59571;SDS011;70118;45.638;11.714;2023-08-24T03:02:19;10.10;;;8.57;;
59571;SDS011;70118;45.638;11.714;2023-08-24T03:04:45;12.00;;;8.37;;
59571;SDS011;70118;45.638;11.714;2023-08-24T03:07:11;10.05;;;8.15;;
59571;SDS011;70118;45.638;11.714;2023-08-24T03:09:37;9.93;;;8.32;;
59571;SDS011;70118;45.638;11.714;2023-08-24T03:12:03;9.73;;;7.88;;
59571;SDS011;70118;45.638;11.714;2023-08-24T03:14:29;9.80;;;8.10;;
59571;SDS011;70118;45.638;11.714;2023-08-24T03:16:55;10.07;;;8.13;;
59571;SDS011;70118;45.638;11.714;2023-08-24T03:19:20;9.88;;;8.27;;
59571;SDS011;70118;45.638;11.714;2023-08-24T03:21:46;9.70;;;8.27;;
59571;SDS011;70118;45.638;11.714;2023-08-24T03:24:12;10.30;;;8.50;;
59571;SDS011;70118;45.638;11.714;2023-08-24T03:26:38;12.05;;;8.88;;
59571;SDS011;70118;45.638;11.714;2023-08-24T03:29:04;12.67;;;9.67;;
59571;SDS011;70118;45.638;11.714;2023-08-24T03:31:30;11.88;;;9.02;;
59571;SDS011;70118;45.638;11.714;2023-08-24T03:33:55;10.60;;;8.77;;
59571;SDS011;70118;45.638;11.714;2023-08-24T03:36:21;11.35;;;9.30;;
59571;SDS011;70118;45.638;11.714;2023-08-24T03:38:47;11.27;;;9.13;;
59571;SDS011;70118;45.638;11.714;2023-08-24T03:41:13;10.40;;;8.60;;
59571;SDS011;70118;45.638;11.714;2023-08-24T03:43:39;11.07;;;8.95;;
59571;SDS011;70118;45.638;11.714;2023-08-24T03:46:06;12.50;;;8.23;;
59571;SDS011;70118;45.638;11.714;2023-08-24T03:48:32;11.33;;;8.93;;
59571;SDS011;70118;45.638;11.714;2023-08-24T03:50:58;11.65;;;9.07;;
59571;SDS011;70118;45.638;11.714;2023-08-24T03:53:24;12.07;;;9.40;;
59571;SDS011;70118;45.638;11.714;2023-08-24T03:55:50;13.25;;;10.25;;
59571;SDS011;70118;45.638;11.714;2023-08-24T03:58:17;13.37;;;10.40;;
59571;SDS011;70118;45.638;11.714;2023-08-24T04:00:43;13.82;;;11.00;;
59571;SDS011;70118;45.638;11.714;2023-08-24T04:03:10;15.90;;;11.32;;
59571;SDS011;70118;45.638;11.714;2023-08-24T04:05:36;14.73;;;11.13;;
59571;SDS011;70118;45.638;11.714;2023-08-24T04:08:02;13.40;;;10.83;;
59571;SDS011;70118;45.638;11.714;2023-08-24T04:10:29;15.82;;;12.00;;
59571;SDS011;70118;45.638;11.714;2023-08-24T04:12:56;15.05;;;11.10;;
59571;SDS011;70118;45.638;11.714;2023-08-24T04:15:22;15.32;;;10.98;;
59571;SDS011;70118;45.638;11.714;2023-08-24T04:17:48;14.20;;;11.23;;
59571;SDS011;70118;45.638;11.714;2023-08-24T04:20:14;12.57;;;10.20;;
59571;SDS011;70118;45.638;11.714;2023-08-24T04:22:41;15.32;;;11.00;;
59571;SDS011;70118;45.638;11.714;2023-08-24T04:25:07;14.98;;;10.38;;
59571;SDS011;70118;45.638;11.714;2023-08-24T04:27:34;13.48;;;10.38;;
59571;SDS011;70118;45.638;11.714;2023-08-24T04:30:00;13.35;;;10.25;;
59571;SDS011;70118;45.638;11.714;2023-08-24T04:32:27;12.63;;;10.00;;
59571;SDS011;70118;45.638;11.714;2023-08-24T04:34:53;12.18;;;10.85;;
59571;SDS011;70118;45.638;11.714;2023-08-24T04:37:19;13.23;;;9.57;;
59571;SDS011;70118;45.638;11.714;2023-08-24T04:39:45;14.33;;;10.50;;
59571;SDS011;70118;45.638;11.714;2023-08-24T04:42:11;12.88;;;10.20;;
59571;SDS011;70118;45.638;11.714;2023-08-24T04:44:37;14.77;;;10.20;;
59571;SDS011;70118;45.638;11.714;2023-08-24T04:47:03;14.23;;;11.25;;
59571;SDS011;70118;45.638;11.714;2023-08-24T04:49:32;13.23;;;10.90;;
59571;SDS011;70118;45.638;11.714;2023-08-24T04:51:58;15.48;;;11.32;;
59571;SDS011;70118;45.638;11.714;2023-08-24T04:54:24;13.68;;;11.35;;
59571;SDS011;70118;45.638;11.714;2023-08-24T04:56:49;14.57;;;11.25;;
59571;SDS011;70118;45.638;11.714;2023-08-24T04:59:15;15.03;;;10.83;;
59571;SDS011;70118;45.638;11.714;2023-08-24T05:01:41;15.20;;;11.38;;
59571;SDS011;70118;45.638;11.714;2023-08-24T05:04:07;15.97;;;11.17;;
59571;SDS011;70118;45.638;11.714;2023-08-24T05:06:33;14.27;;;10.73;;
59571;SDS011;70118;45.638;11.714;2023-08-24T05:08:59;14.05;;;10.48;;
59571;SDS011;70118;45.638;11.714;2023-08-24T05:11:26;14.83;;;10.13;;
59571;SDS011;70118;45.638;11.714;2023-08-24T05:13:54;14.73;;;10.48;;
59571;SDS011;70118;45.638;11.714;2023-08-24T05:16:21;13.27;;;10.23;;
59571;SDS011;70118;45.638;11.714;2023-08-24T05:18:47;13.23;;;10.35;;
59571;SDS011;70118;45.638;11.714;2023-08-24T05:21:13;14.17;;;10.30;;
59571;SDS011;70118;45.638;11.714;2023-08-24T05:23:39;14.30;;;10.27;;
59571;SDS011;70118;45.638;11.714;2023-08-24T05:26:05;12.68;;;9.95;;
59571;SDS011;70118;45.638;11.714;2023-08-24T05:28:31;13.20;;;10.20;;
59571;SDS011;70118;45.638;11.714;2023-08-24T05:30:57;12.85;;;10.45;;
59571;SDS011;70118;45.638;11.714;2023-08-24T05:33:24;14.23;;;10.63;;
59571;SDS011;70118;45.638;11.714;2023-08-24T05:35:51;14.55;;;9.88;;
59571;SDS011;70118;45.638;11.714;2023-08-24T05:38:18;14.68;;;10.38;;
59571;SDS011;70118;45.638;11.714;2023-08-24T05:40:47;14.88;;;10.20;;
59571;SDS011;70118;45.638;11.714;2023-08-24T05:43:14;12.30;;;10.23;;
59571;SDS011;70118;45.638;11.714;2023-08-24T05:45:40;12.87;;;10.57;;
59571;SDS011;70118;45.638;11.714;2023-08-24T05:48:08;12.48;;;10.48;;
59571;SDS011;70118;45.638;11.714;2023-08-24T05:50:35;17.10;;;10.40;;
59571;SDS011;70118;45.638;11.714;2023-08-24T05:53:02;13.20;;;10.45;;
59571;SDS011;70118;45.638;11.714;2023-08-24T05:55:28;13.40;;;10.63;;
59571;SDS011;70118;45.638;11.714;2023-08-24T05:57:54;15.33;;;12.40;;
59571;SDS011;70118;45.638;11.714;2023-08-24T06:00:20;16.15;;;13.00;;
59571;SDS011;70118;45.638;11.714;2023-08-24T06:02:47;17.30;;;9.93;;
59571;SDS011;70118;45.638;11.714;2023-08-24T06:05:13;13.57;;;9.77;;
59571;SDS011;70118;45.638;11.714;2023-08-24T06:07:39;17.70;;;10.20;;
59571;SDS011;70118;45.638;11.714;2023-08-24T06:10:05;17.13;;;10.43;;
59571;SDS011;70118;45.638;11.714;2023-08-24T06:12:31;16.67;;;10.60;;
59571;SDS011;70118;45.638;11.714;2023-08-24T06:14:57;17.77;;;10.90;;
59571;SDS011;70118;45.638;11.714;2023-08-24T06:17:23;14.20;;;10.02;;
59571;SDS011;70118;45.638;11.714;2023-08-24T06:19:49;16.43;;;10.60;;
59571;SDS011;70118;45.638;11.714;2023-08-24T06:22:15;15.30;;;10.63;;
59571;SDS011;70118;45.638;11.714;2023-08-24T06:24:41;15.30;;;10.15;;
59571;SDS011;70118;45.638;11.714;2023-08-24T06:27:07;16.65;;;9.68;;
59571;SDS011;70118;45.638;11.714;2023-08-24T06:29:34;12.95;;;9.00;;
59571;SDS011;70118;45.638;11.714;2023-08-24T06:32:01;12.23;;;9.00;;
59571;SDS011;70118;45.638;11.714;2023-08-24T06:34:28;12.40;;;9.48;;
59571;SDS011;70118;45.638;11.714;2023-08-24T06:36:58;12.45;;;8.75;;
59571;SDS011;70118;45.638;11.714;2023-08-24T06:39:28;10.80;;;8.55;;
59571;SDS011;70118;45.638;11.714;2023-08-24T06:41:55;13.35;;;9.43;;
59571;SDS011;70118;45.638;11.714;2023-08-24T06:44:22;10.93;;;8.33;;
59571;SDS011;70118;45.638;11.714;2023-08-24T06:46:48;14.27;;;8.52;;
59571;SDS011;70118;45.638;11.714;2023-08-24T06:49:15;12.60;;;8.73;;
59571;SDS011;70118;45.638;11.714;2023-08-24T06:51:41;12.85;;;8.52;;
59571;SDS011;70118;45.638;11.714;2023-08-24T06:54:07;11.77;;;9.03;;
59571;SDS011;70118;45.638;11.714;2023-08-24T06:56:34;10.25;;;8.32;;
59571;SDS011;70118;45.638;11.714;2023-08-24T06:59:00;11.57;;;8.07;;
59571;SDS011;70118;45.638;11.714;2023-08-24T07:01:27;11.30;;;8.68;;
59571;SDS011;70118;45.638;11.714;2023-08-24T07:03:54;11.73;;;8.48;;
59571;SDS011;70118;45.638;11.714;2023-08-24T07:06:20;11.17;;;8.27;;
59571;SDS011;70118;45.638;11.714;2023-08-24T07:08:46;11.48;;;8.55;;
59571;SDS011;70118;45.638;11.714;2023-08-24T07:11:17;9.82;;;7.53;;
59571;SDS011;70118;45.638;11.714;2023-08-24T07:13:46;11.48;;;8.40;;
59571;SDS011;70118;45.638;11.714;2023-08-24T07:16:13;10.93;;;7.78;;
59571;SDS011;70118;45.638;11.714;2023-08-24T07:18:41;11.23;;;8.10;;
59571;SDS011;70118;45.638;11.714;2023-08-24T07:21:13;11.18;;;7.95;;
59571;SDS011;70118;45.638;11.714;2023-08-24T07:23:43;10.32;;;7.85;;
59571;SDS011;70118;45.638;11.714;2023-08-24T07:26:14;13.52;;;9.27;;
59571;SDS011;70118;45.638;11.714;2023-08-24T07:28:44;10.87;;;7.67;;
59571;SDS011;70118;45.638;11.714;2023-08-24T07:31:13;11.57;;;8.23;;
59571;SDS011;70118;45.638;11.714;2023-08-24T07:33:40;12.57;;;8.48;;
59571;SDS011;70118;45.638;11.714;2023-08-24T07:36:12;10.23;;;7.80;;
59571;SDS011;70118;45.638;11.714;2023-08-24T07:38:41;12.40;;;8.57;;
59571;SDS011;70118;45.638;11.714;2023-08-24T07:41:07;11.60;;;8.10;;
59571;SDS011;70118;45.638;11.714;2023-08-24T07:43:34;11.60;;;8.63;;
59571;SDS011;70118;45.638;11.714;2023-08-24T07:46:00;12.15;;;8.27;;
59571;SDS011;70118;45.638;11.714;2023-08-24T07:48:26;11.05;;;8.32;;
59571;SDS011;70118;45.638;11.714;2023-08-24T07:50:53;12.13;;;8.87;;
59571;SDS011;70118;45.638;11.714;2023-08-24T07:53:19;12.02;;;8.18;;
59571;SDS011;70118;45.638;11.714;2023-08-24T07:55:44;11.63;;;8.57;;
59571;SDS011;70118;45.638;11.714;2023-08-24T07:58:11;12.05;;;9.07;;
59571;SDS011;70118;45.638;11.714;2023-08-24T08:00:36;12.67;;;8.67;;
59571;SDS011;70118;45.638;11.714;2023-08-24T08:03:04;10.00;;;7.72;;
59571;SDS011;70118;45.638;11.714;2023-08-24T08:05:30;11.23;;;8.52;;
59571;SDS011;70118;45.638;11.714;2023-08-24T08:07:56;11.53;;;8.47;;
59571;SDS011;70118;45.638;11.714;2023-08-24T08:10:21;10.90;;;8.48;;
59571;SDS011;70118;45.638;11.714;2023-08-24T08:12:47;11.25;;;8.32;;
59571;SDS011;70118;45.638;11.714;2023-08-24T08:15:13;12.17;;;8.60;;
59571;SDS011;70118;45.638;11.714;2023-08-24T08:17:39;11.50;;;8.82;;
59571;SDS011;70118;45.638;11.714;2023-08-24T08:20:07;12.50;;;8.90;;
59571;SDS011;70118;45.638;11.714;2023-08-24T08:22:33;13.07;;;9.13;;
59571;SDS011;70118;45.638;11.714;2023-08-24T08:25:03;12.00;;;8.80;;
59571;SDS011;70118;45.638;11.714;2023-08-24T08:27:30;10.50;;;7.93;;
59571;SDS011;70118;45.638;11.714;2023-08-24T08:29:56;11.43;;;8.38;;
59571;SDS011;70118;45.638;11.714;2023-08-24T08:32:21;13.02;;;8.80;;
59571;SDS011;70118;45.638;11.714;2023-08-24T08:34:55;12.70;;;8.65;;
59571;SDS011;70118;45.638;11.714;2023-08-24T08:37:25;12.60;;;8.87;;
59571;SDS011;70118;45.638;11.714;2023-08-24T08:39:51;13.27;;;9.20;;
59571;SDS011;70118;45.638;11.714;2023-08-24T08:42:16;11.77;;;8.35;;
59571;SDS011;70118;45.638;11.714;2023-08-24T08:44:43;11.30;;;8.43;;
59571;SDS011;70118;45.638;11.714;2023-08-24T08:47:12;12.00;;;9.07;;
59571;SDS011;70118;45.638;11.714;2023-08-24T08:49:39;11.32;;;8.52;;
59571;SDS011;70118;45.638;11.714;2023-08-24T08:52:06;13.27;;;8.88;;
59571;SDS011;70118;45.638;11.714;2023-08-24T08:54:32;11.40;;;8.07;;
59571;SDS011;70118;45.638;11.714;2023-08-24T08:56:58;12.32;;;8.30;;
59571;SDS011;70118;45.638;11.714;2023-08-24T08:59:25;11.50;;;8.13;;
59571;SDS011;70118;45.638;11.714;2023-08-24T09:02:00;9.75;;;8.10;;
59571;SDS011;70118;45.638;11.714;2023-08-24T09:04:27;10.30;;;7.90;;
59571;SDS011;70118;45.638;11.714;2023-08-24T09:06:57;11.75;;;8.50;;
59571;SDS011;70118;45.638;11.714;2023-08-24T09:09:23;10.90;;;8.57;;
59571;SDS011;70118;45.638;11.714;2023-08-24T09:11:51;10.15;;;7.60;;
59571;SDS011;70118;45.638;11.714;2023-08-24T09:14:17;10.82;;;7.93;;
59571;SDS011;70118;45.638;11.714;2023-08-24T09:16:43;11.13;;;8.23;;
59571;SDS011;70118;45.638;11.714;2023-08-24T09:19:10;11.18;;;7.35;;
59571;SDS011;70118;45.638;11.714;2023-08-24T09:21:37;10.15;;;7.90;;
59571;SDS011;70118;45.638;11.714;2023-08-24T09:24:05;13.25;;;7.78;;
59571;SDS011;70118;45.638;11.714;2023-08-24T09:26:31;10.50;;;8.40;;
59571;SDS011;70118;45.638;11.714;2023-08-24T09:29:23;10.40;;;7.65;;
59571;SDS011;70118;45.638;11.714;2023-08-24T09:31:49;11.85;;;8.63;;
59571;SDS011;70118;45.638;11.714;2023-08-24T09:34:15;11.90;;;8.27;;
59571;SDS011;70118;45.638;11.714;2023-08-24T09:36:51;9.85;;;7.45;;
59571;SDS011;70118;45.638;11.714;2023-08-24T09:39:17;10.90;;;7.80;;
59571;SDS011;70118;45.638;11.714;2023-08-24T09:41:48;9.88;;;7.15;;
59571;SDS011;70118;45.638;11.714;2023-08-24T09:44:16;11.32;;;7.90;;
59571;SDS011;70118;45.638;11.714;2023-08-24T09:46:43;10.57;;;7.88;;
59571;SDS011;70118;45.638;11.714;2023-08-24T09:49:09;10.52;;;8.07;;
59571;SDS011;70118;45.638;11.714;2023-08-24T09:51:37;10.07;;;7.63;;
59571;SDS011;70118;45.638;11.714;2023-08-24T09:54:05;11.18;;;8.20;;
59571;SDS011;70118;45.638;11.714;2023-08-24T09:56:37;10.70;;;8.00;;
59571;SDS011;70118;45.638;11.714;2023-08-24T10:01:40;9.95;;;7.72;;
59571;SDS011;70118;45.638;11.714;2023-08-24T10:04:08;9.13;;;7.20;;
59571;SDS011;70118;45.638;11.714;2023-08-24T10:06:36;10.40;;;7.90;;
59571;SDS011;70118;45.638;11.714;2023-08-24T10:09:06;10.73;;;8.07;;
59571;SDS011;70118;45.638;11.714;2023-08-24T10:11:40;10.73;;;8.00;;
59571;SDS011;70118;45.638;11.714;2023-08-24T10:14:15;9.20;;;7.82;;
59571;SDS011;70118;45.638;11.714;2023-08-24T10:16:46;9.40;;;7.93;;
59571;SDS011;70118;45.638;11.714;2023-08-24T10:19:13;9.32;;;7.63;;
59571;SDS011;70118;45.638;11.714;2023-08-24T10:21:39;11.30;;;8.25;;
59571;SDS011;70118;45.638;11.714;2023-08-24T10:24:08;10.00;;;7.75;;
59571;SDS011;70118;45.638;11.714;2023-08-24T10:26:35;9.75;;;7.35;;
59571;SDS011;70118;45.638;11.714;2023-08-24T10:29:04;9.57;;;7.70;;
59571;SDS011;70118;45.638;11.714;2023-08-24T10:31:31;9.48;;;7.00;;
59571;SDS011;70118;45.638;11.714;2023-08-24T10:33:58;9.38;;;7.30;;
59571;SDS011;70118;45.638;11.714;2023-08-24T10:36:25;9.32;;;7.13;;
59571;SDS011;70118;45.638;11.714;2023-08-24T10:38:54;9.40;;;7.25;;
59571;SDS011;70118;45.638;11.714;2023-08-24T10:41:28;9.83;;;7.17;;
59571;SDS011;70118;45.638;11.714;2023-08-24T10:44:20;9.07;;;7.35;;
59571;SDS011;70118;45.638;11.714;2023-08-24T10:49:41;10.98;;;7.07;;
59571;SDS011;70118;45.638;11.714;2023-08-24T10:52:16;9.82;;;7.45;;
59571;SDS011;70118;45.638;11.714;2023-08-24T10:54:45;9.87;;;7.70;;
59571;SDS011;70118;45.638;11.714;2023-08-24T11:02:41;10.68;;;7.88;;
59571;SDS011;70118;45.638;11.714;2023-08-24T11:05:27;10.25;;;7.35;;
59571;SDS011;70118;45.638;11.714;2023-08-24T11:08:05;9.17;;;6.83;;
59571;SDS011;70118;45.638;11.714;2023-08-24T11:10:32;8.82;;;6.82;;
59571;SDS011;70118;45.638;11.714;2023-08-24T11:15:44;8.85;;;6.90;;
59571;SDS011;70118;45.638;11.714;2023-08-24T11:20:54;8.00;;;6.50;;
59571;SDS011;70118;45.638;11.714;2023-08-24T11:23:22;9.32;;;6.88;;
59571;SDS011;70118;45.638;11.714;2023-08-24T11:25:52;8.35;;;6.95;;
59571;SDS011;70118;45.638;11.714;2023-08-24T11:28:26;10.50;;;7.07;;
59571;SDS011;70118;45.638;11.714;2023-08-24T11:30:54;9.10;;;7.35;;
59571;SDS011;70118;45.638;11.714;2023-08-24T11:33:27;10.30;;;7.53;;
59571;SDS011;70118;45.638;11.714;2023-08-24T11:35:54;9.95;;;7.30;;
59571;SDS011;70118;45.638;11.714;2023-08-24T11:38:22;8.75;;;6.82;;
59571;SDS011;70118;45.638;11.714;2023-08-24T11:40:48;8.68;;;6.93;;
59571;SDS011;70118;45.638;11.714;2023-08-24T11:43:26;9.02;;;7.03;;
59571;SDS011;70118;45.638;11.714;2023-08-24T11:45:53;8.80;;;6.83;;
59571;SDS011;70118;45.638;11.714;2023-08-24T11:48:28;10.15;;;7.25;;
59571;SDS011;70118;45.638;11.714;2023-08-24T11:50:56;10.15;;;7.13;;
59571;SDS011;70118;45.638;11.714;2023-08-24T11:53:24;10.02;;;7.20;;
59571;SDS011;70118;45.638;11.714;2023-08-24T11:55:54;9.30;;;6.38;;
59571;SDS011;70118;45.638;11.714;2023-08-24T11:58:20;9.63;;;7.40;;
59571;SDS011;70118;45.638;11.714;2023-08-24T12:00:46;9.10;;;6.95;;
59571;SDS011;70118;45.638;11.714;2023-08-24T12:03:13;10.60;;;6.78;;
59571;SDS011;70118;45.638;11.714;2023-08-24T12:05:39;9.70;;;6.95;;
59571;SDS011;70118;45.638;11.714;2023-08-24T12:08:05;9.75;;;6.35;;
59571;SDS011;70118;45.638;11.714;2023-08-24T12:10:31;8.93;;;6.80;;
59571;SDS011;70118;45.638;11.714;2023-08-24T12:13:03;9.93;;;7.28;;
59571;SDS011;70118;45.638;11.714;2023-08-24T12:15:31;8.88;;;7.05;;
59571;SDS011;70118;45.638;11.714;2023-08-24T12:18:12;10.48;;;7.10;;
59571;SDS011;70118;45.638;11.714;2023-08-24T12:20:42;9.02;;;6.65;;
59571;SDS011;70118;45.638;11.714;2023-08-24T12:23:09;10.23;;;7.17;;
59571;SDS011;70118;45.638;11.714;2023-08-24T12:25:42;10.40;;;7.30;;
59571;SDS011;70118;45.638;11.714;2023-08-24T12:33:24;9.68;;;7.00;;
59571;SDS011;70118;45.638;11.714;2023-08-24T12:35:51;9.90;;;6.93;;
59571;SDS011;70118;45.638;11.714;2023-08-24T12:38:18;9.27;;;6.70;;
59571;SDS011;70118;45.638;11.714;2023-08-24T12:40:45;9.07;;;7.03;;
59571;SDS011;70118;45.638;11.714;2023-08-24T12:43:11;8.32;;;6.95;;
59571;SDS011;70118;45.638;11.714;2023-08-24T12:45:37;9.60;;;6.53;;
59571;SDS011;70118;45.638;11.714;2023-08-24T12:48:03;8.63;;;6.65;;
59571;SDS011;70118;45.638;11.714;2023-08-24T12:50:29;9.57;;;7.22;;
59571;SDS011;70118;45.638;11.714;2023-08-24T12:52:55;10.05;;;6.82;;
59571;SDS011;70118;45.638;11.714;2023-08-24T12:55:25;8.77;;;7.00;;
59571;SDS011;70118;45.638;11.714;2023-08-24T12:57:53;9.35;;;7.28;;
59571;SDS011;70118;45.638;11.714;2023-08-24T13:00:19;9.20;;;7.15;;
59571;SDS011;70118;45.638;11.714;2023-08-24T13:02:46;10.15;;;7.28;;
59571;SDS011;70118;45.638;11.714;2023-08-24T13:05:16;8.75;;;6.78;;
59571;SDS011;70118;45.638;11.714;2023-08-24T13:07:42;9.50;;;6.93;;
59571;SDS011;70118;45.638;11.714;2023-08-24T13:10:09;8.50;;;6.78;;
59571;SDS011;70118;45.638;11.714;2023-08-24T13:12:36;8.90;;;6.68;;
59571;SDS011;70118;45.638;11.714;2023-08-24T13:15:02;8.13;;;6.70;;
59571;SDS011;70118;45.638;11.714;2023-08-24T13:17:31;8.23;;;6.43;;
59571;SDS011;70118;45.638;11.714;2023-08-24T13:19:58;9.30;;;6.50;;
59571;SDS011;70118;45.638;11.714;2023-08-24T13:22:24;8.77;;;7.10;;
59571;SDS011;70118;45.638;11.714;2023-08-24T13:24:49;9.68;;;7.00;;
59571;SDS011;70118;45.638;11.714;2023-08-24T13:27:15;8.87;;;7.20;;
59571;SDS011;70118;45.638;11.714;2023-08-24T13:29:41;9.63;;;7.03;;
59571;SDS011;70118;45.638;11.714;2023-08-24T13:32:08;9.50;;;6.50;;
59571;SDS011;70118;45.638;11.714;2023-08-24T13:34:34;9.75;;;6.78;;
59571;SDS011;70118;45.638;11.714;2023-08-24T13:37:01;9.13;;;6.73;;
59571;SDS011;70118;45.638;11.714;2023-08-24T13:39:27;8.43;;;6.82;;
59571;SDS011;70118;45.638;11.714;2023-08-24T13:41:57;8.57;;;6.25;;
59571;SDS011;70118;45.638;11.714;2023-08-24T13:44:23;9.20;;;6.90;;
59571;SDS011;70118;45.638;11.714;2023-08-24T13:46:51;8.93;;;6.95;;
59571;SDS011;70118;45.638;11.714;2023-08-24T13:49:18;8.27;;;6.50;;
59571;SDS011;70118;45.638;11.714;2023-08-24T13:51:44;8.60;;;6.43;;
59571;SDS011;70118;45.638;11.714;2023-08-24T13:54:16;8.55;;;7.20;;
59571;SDS011;70118;45.638;11.714;2023-08-24T13:56:44;9.07;;;6.32;;
59571;SDS011;70118;45.638;11.714;2023-08-24T13:59:11;9.40;;;6.68;;
59571;SDS011;70118;45.638;11.714;2023-08-24T14:01:37;8.53;;;6.40;;
59571;SDS011;70118;45.638;11.714;2023-08-24T14:04:03;9.35;;;6.93;;
59571;SDS011;70118;45.638;11.714;2023-08-24T14:06:30;9.57;;;6.45;;
59571;SDS011;70118;45.638;11.714;2023-08-24T14:08:58;8.93;;;6.75;;
59571;SDS011;70118;45.638;11.714;2023-08-24T14:11:24;11.40;;;7.33;;
59571;SDS011;70118;45.638;11.714;2023-08-24T14:13:50;7.72;;;6.28;;
59571;SDS011;70118;45.638;11.714;2023-08-24T14:16:17;10.00;;;6.20;;
59571;SDS011;70118;45.638;11.714;2023-08-24T14:18:44;8.43;;;6.70;;
59571;SDS011;70118;45.638;11.714;2023-08-24T14:21:11;9.33;;;6.60;;
59571;SDS011;70118;45.638;11.714;2023-08-24T14:23:37;8.57;;;6.32;;
59571;SDS011;70118;45.638;11.714;2023-08-24T14:26:02;8.77;;;6.32;;
59571;SDS011;70118;45.638;11.714;2023-08-24T14:28:46;9.13;;;6.33;;
59571;SDS011;70118;45.638;11.714;2023-08-24T14:31:18;7.82;;;6.13;;
59571;SDS011;70118;45.638;11.714;2023-08-24T14:33:45;8.85;;;6.80;;
59571;SDS011;70118;45.638;11.714;2023-08-24T14:36:11;9.02;;;6.60;;
59571;SDS011;70118;45.638;11.714;2023-08-24T14:38:40;9.10;;;6.50;;
59571;SDS011;70118;45.638;11.714;2023-08-24T14:41:09;8.45;;;6.70;;
59571;SDS011;70118;45.638;11.714;2023-08-24T14:43:36;8.45;;;6.40;;
59571;SDS011;70118;45.638;11.714;2023-08-24T14:46:02;8.02;;;6.45;;